Historyczne dane pomiarowe

Dodano dane terminowe – wersja testowa.

Dane z okresu 1951-2019

Wersja bazy: 1.34 [2019-03-16, lista zmian], aktualizacja planowana na 2019-04-15

Dane meteo z obszaru Polski uzyskane na podstawie danych udostępnionych przez Instytut Meteorologii i Gospodarki Wodnej – Państwowy Instytut Badawczy.

 

Wybierz Datę:    

       

TemperaturaWilgotnośćWiatrCiśnienieOpadyŚniegCzas trwania zjawisk
 Stacja t tx tn tng RH VA  wxwx mslp ppp RRR   cm mm wxwxwxwxwxwxwx
1987-08-14 15.6 20.8 9.5- 74.0- 6.7 2.0---- 2.8------------
1987-08-13 14.2 19.4 8.7- 70.8- 6.0 1.0---- 0.0------------
1987-08-12 13.7 19.0 7.4- 64.8- 6.0 1.3---- 0.2------------
1987-08-11 13.6 16.2 10.9- 69.0- 4.3 3.0---- 0.3------------
1987-08-10 14.8 19.2 10.3- 79.5- 7.0 2.3---- 0.8------------
1987-08-09 16.3 24.0 9.4- 72.3- 6.3 0.0---- 10.6------------
1987-08-08 15.0 21.5 9.3- 59.5- 5.0 1.3---- 0.0------------
1987-08-07 11.2 17.8 4.9- 70.5- 5.7 2.3---- 0.0------------
1987-08-06 11.0 15.2 7.7- 74.8- 5.7 2.0---- 0.4------------
1987-08-05 12.4 17.2 7.3- 65.8- 5.3 0.0---- 0.2------------
1987-08-04 15.2 18.5 12.7- 70.5- 5.3 1.0---- 0.0------------
1987-08-03 15.2 20.5 10.1- 68.8- 5.7 1.0---- 3.0------------
1987-08-02 14.5 18.0 11.1- 73.3- 6.3 2.7---- 2.5------------
1987-08-01 15.3 19.8 13.4- 79.0- 6.0 2.7---- 7.0------------
1987-07-31 15.8 21.5 12.4- 78.0- 6.3 2.7---- 0.5------------
1987-07-30 18.5 24.5 10.5- 61.3- 5.0 0.7---- 1.8------------
1987-07-29 14.6 19.2 10.4- 72.8- 4.3 2.7---- 0.0------------
1987-07-28 13.4 15.5 10.9- 79.0- 6.0 4.0---- 1.2------------
1987-07-27 12.5 17.2 8.9- 69.3- 5.0 2.7---- 5.3------------
1987-07-26 13.5 16.5 10.9- 63.0- 6.0 2.7---- 0.3------------
1987-07-25 16.8 21.0 14.0- 80.0- 6.3 1.7---- 11.2------------
1987-07-24 19.5 24.0 14.0- 75.8- 5.7 1.0---- 0.0------------
1987-07-23 19.3 26.1 11.6- 80.0- 5.0 0.7---- 0.0------------
1987-07-22 18.1 24.0 11.5- 68.3- 3.0 0.0---- 0.0------------
1987-07-21 15.9 21.0 11.8- 83.3- 7.0 0.7---- 0.0------------
1987-07-20 18.2 22.6 15.0- 80.0- 5.3 0.0---- 0.0------------
1987-07-19 18.5 22.2 15.8- 79.3- 6.3 0.0---- 23.4------------
1987-07-18 20.7 26.1 16.2- 72.3- 5.3 2.0---- 0.0------------
1987-07-17 23.4 30.3 17.2- 69.3- 4.0 2.3---- 0.0------------
1987-07-16 20.3 27.7 13.4- 77.0- 5.7 1.0---- 0.0------------
1987-07-15 16.5 23.5 8.8- 70.5- 3.0 0.7---- 0.0------------
1987-07-14 15.9 21.0 8.5- 70.5- 1.3 0.0---- 0.0------------
1987-07-13 17.4 21.0 13.0- 61.0- 4.7 3.0---- 0.0------------
1987-07-12 21.9 28.1 17.4- 61.8- 6.0 2.3---- 7.2------------
1987-07-11 17.5 24.6 9.4- 60.5- 6.0 3.0---- 0.0------------
1987-07-10 15.0 19.0 9.9- 57.0- 5.3 1.7---- 0.0------------
1987-07-09 16.1 19.4 14.2- 80.0- 5.7 1.7---- 0.3------------
1987-07-08 20.4 26.6 16.5- 70.3- 5.7 1.0---- 25.7------------
1987-07-07 19.8 27.1 9.0- 60.0- 1.7 1.7---- 0.0------------
1987-07-06 16.8 23.5 8.9- 71.0- 1.7 1.0---- 0.0------------
1987-07-05 15.4 21.8 10.9- 65.5- 2.7 1.0---- 0.0------------
1987-07-04 17.2 22.0 11.1- 76.5- 4.7 1.0---- 0.0------------
1987-07-03 18.4 24.2 11.3- 73.0- 4.0 0.0---- 0.0------------
1987-07-02 17.7 21.0 14.4- 83.5- 6.3 0.7---- 0.0------------
1987-07-01 24.4 31.6 19.5- 66.3- 4.0 1.0---- 12.8------------
1987-06-30 24.0 30.6 17.0- 65.0- 1.0 1.0---- 0.0------------
1987-06-29 21.6 27.1 16.4- 73.3- 1.7 0.0---- 0.0------------
1987-06-28 19.5 25.1 14.4- 66.8- 5.3 1.3---- 0.0------------
1987-06-27 17.2 20.4 15.0- 89.5- 7.0 0.0---- 0.8------------
1987-06-26 17.1 24.2 9.4- 68.5- 5.3 3.7---- 0.8------------
1987-06-25 13.2 18.0 10.7- 79.8- 7.0 0.0---- 0.7------------
1987-06-24 15.3 19.5 13.5- 71.0- 5.3 0.7---- 6.7------------
1987-06-23 15.5 20.0 11.0- 74.5- 6.7 1.0---- 0.0------------
1987-06-22 12.7 16.2 11.1- 84.0- 7.0 1.0---- 2.5------------
1987-06-21 16.0 21.0 11.9- 74.5- 6.3 1.3---- 0.4------------
1987-06-20 15.5 21.8 8.4- 72.8- 5.0 2.7---- 0.0------------
1987-06-19 12.5 17.2 7.7- 66.0- 5.3 3.3---- 0.0------------
1987-06-18 10.1 14.8 7.7- 82.0- 6.7 3.0---- 2.7------------
1987-06-17 12.6 16.4 9.3- 53.3- 5.3 2.0---- 0.3------------
1987-06-16 11.8 19.2 8.9- 79.0- 7.0 4.7---- 0.0------------
375.3 ms

 

Źródłem pochodzenia danych jest Instytut Meteorologii i Gospodarki Wodnej – Państwowy Instytut Badawczy. Dane Instytutu Meteorologii i Gospodarki Wodnej – Państwowego Instytutu Badawczego zostały przetworzone.

Dane źródłowe można odnaleźć na stronie https://dane.imgw.pl